sensor_id;sensor_type;location;lat;lon;timestamp;P1;durP1;ratioP1;P2;durP2;ratioP2
51248;SDS011;39642;47.556;18.728;2023-04-24T00:00:20;9.02;;;3.97;;
51248;SDS011;39642;47.556;18.728;2023-04-24T00:02:46;10.07;;;3.92;;
51248;SDS011;39642;47.556;18.728;2023-04-24T00:05:13;9.98;;;3.90;;
51248;SDS011;39642;47.556;18.728;2023-04-24T00:07:39;9.90;;;3.90;;
51248;SDS011;39642;47.556;18.728;2023-04-24T00:10:09;9.80;;;3.65;;
51248;SDS011;39642;47.556;18.728;2023-04-24T00:12:35;9.18;;;3.70;;
51248;SDS011;39642;47.556;18.728;2023-04-24T00:15:02;10.02;;;3.92;;
51248;SDS011;39642;47.556;18.728;2023-04-24T00:17:28;9.20;;;3.70;;
51248;SDS011;39642;47.556;18.728;2023-04-24T00:19:54;10.43;;;4.15;;
51248;SDS011;39642;47.556;18.728;2023-04-24T00:22:24;9.20;;;3.97;;
51248;SDS011;39642;47.556;18.728;2023-04-24T00:24:50;8.98;;;3.62;;
51248;SDS011;39642;47.556;18.728;2023-04-24T00:27:16;9.70;;;3.90;;
51248;SDS011;39642;47.556;18.728;2023-04-24T00:29:42;8.88;;;3.50;;
51248;SDS011;39642;47.556;18.728;2023-04-24T00:32:08;9.57;;;3.95;;
51248;SDS011;39642;47.556;18.728;2023-04-24T00:34:34;9.95;;;3.75;;
51248;SDS011;39642;47.556;18.728;2023-04-24T00:37:00;9.00;;;3.78;;
51248;SDS011;39642;47.556;18.728;2023-04-24T00:39:26;9.35;;;3.75;;
51248;SDS011;39642;47.556;18.728;2023-04-24T00:41:52;10.50;;;3.97;;
51248;SDS011;39642;47.556;18.728;2023-04-24T00:44:18;9.57;;;4.10;;
51248;SDS011;39642;47.556;18.728;2023-04-24T00:46:45;9.73;;;3.97;;
51248;SDS011;39642;47.556;18.728;2023-04-24T00:49:13;10.32;;;3.95;;
51248;SDS011;39642;47.556;18.728;2023-04-24T00:51:39;9.68;;;4.00;;
51248;SDS011;39642;47.556;18.728;2023-04-24T00:54:06;10.80;;;3.92;;
51248;SDS011;39642;47.556;18.728;2023-04-24T00:56:32;9.20;;;3.83;;
51248;SDS011;39642;47.556;18.728;2023-04-24T00:58:58;9.00;;;3.90;;
51248;SDS011;39642;47.556;18.728;2023-04-24T01:01:24;9.25;;;4.00;;
51248;SDS011;39642;47.556;18.728;2023-04-24T01:03:51;9.57;;;3.90;;
51248;SDS011;39642;47.556;18.728;2023-04-24T01:06:18;10.20;;;4.20;;
51248;SDS011;39642;47.556;18.728;2023-04-24T01:08:45;9.73;;;3.97;;
51248;SDS011;39642;47.556;18.728;2023-04-24T01:11:13;9.60;;;4.20;;
51248;SDS011;39642;47.556;18.728;2023-04-24T01:13:40;9.45;;;4.05;;
51248;SDS011;39642;47.556;18.728;2023-04-24T01:16:06;10.80;;;4.20;;
51248;SDS011;39642;47.556;18.728;2023-04-24T01:18:32;9.32;;;4.03;;
51248;SDS011;39642;47.556;18.728;2023-04-24T01:20:58;9.85;;;4.00;;
51248;SDS011;39642;47.556;18.728;2023-04-24T01:23:25;9.32;;;3.60;;
51248;SDS011;39642;47.556;18.728;2023-04-24T01:25:52;9.88;;;4.15;;
51248;SDS011;39642;47.556;18.728;2023-04-24T01:28:18;10.35;;;4.53;;
51248;SDS011;39642;47.556;18.728;2023-04-24T01:30:44;9.27;;;3.78;;
51248;SDS011;39642;47.556;18.728;2023-04-24T01:33:10;9.63;;;4.03;;
51248;SDS011;39642;47.556;18.728;2023-04-24T01:35:37;9.50;;;4.07;;
51248;SDS011;39642;47.556;18.728;2023-04-24T01:38:03;9.45;;;3.90;;
51248;SDS011;39642;47.556;18.728;2023-04-24T01:40:31;9.93;;;4.18;;
51248;SDS011;39642;47.556;18.728;2023-04-24T01:42:58;9.52;;;3.90;;
51248;SDS011;39642;47.556;18.728;2023-04-24T01:45:24;9.50;;;3.72;;
51248;SDS011;39642;47.556;18.728;2023-04-24T01:47:50;9.95;;;4.22;;
51248;SDS011;39642;47.556;18.728;2023-04-24T01:50:16;11.27;;;4.12;;
51248;SDS011;39642;47.556;18.728;2023-04-24T01:52:43;9.32;;;3.95;;
51248;SDS011;39642;47.556;18.728;2023-04-24T01:55:09;9.38;;;3.90;;
51248;SDS011;39642;47.556;18.728;2023-04-24T01:57:35;9.63;;;4.12;;
51248;SDS011;39642;47.556;18.728;2023-04-24T02:00:02;9.75;;;4.10;;
51248;SDS011;39642;47.556;18.728;2023-04-24T02:02:33;9.88;;;4.07;;
51248;SDS011;39642;47.556;18.728;2023-04-24T02:04:59;9.80;;;4.03;;
51248;SDS011;39642;47.556;18.728;2023-04-24T02:07:25;9.15;;;4.00;;
51248;SDS011;39642;47.556;18.728;2023-04-24T02:09:50;11.35;;;4.40;;
51248;SDS011;39642;47.556;18.728;2023-04-24T02:12:16;10.57;;;4.10;;
51248;SDS011;39642;47.556;18.728;2023-04-24T02:14:45;9.77;;;3.83;;
51248;SDS011;39642;47.556;18.728;2023-04-24T02:17:11;9.25;;;3.60;;
51248;SDS011;39642;47.556;18.728;2023-04-24T02:19:38;10.55;;;4.30;;
51248;SDS011;39642;47.556;18.728;2023-04-24T02:22:04;9.73;;;4.03;;
51248;SDS011;39642;47.556;18.728;2023-04-24T02:24:30;9.73;;;3.87;;
51248;SDS011;39642;47.556;18.728;2023-04-24T02:26:56;9.63;;;3.95;;
51248;SDS011;39642;47.556;18.728;2023-04-24T02:29:23;10.07;;;4.25;;
51248;SDS011;39642;47.556;18.728;2023-04-24T02:31:49;10.02;;;4.00;;
51248;SDS011;39642;47.556;18.728;2023-04-24T02:34:15;10.00;;;4.32;;
51248;SDS011;39642;47.556;18.728;2023-04-24T02:36:41;10.20;;;4.45;;
51248;SDS011;39642;47.556;18.728;2023-04-24T02:39:07;9.07;;;3.67;;
51248;SDS011;39642;47.556;18.728;2023-04-24T02:41:33;9.55;;;3.90;;
51248;SDS011;39642;47.556;18.728;2023-04-24T02:43:59;9.40;;;3.72;;
51248;SDS011;39642;47.556;18.728;2023-04-24T02:46:25;9.40;;;3.80;;
51248;SDS011;39642;47.556;18.728;2023-04-24T02:48:51;9.60;;;3.97;;
51248;SDS011;39642;47.556;18.728;2023-04-24T02:51:17;10.75;;;3.95;;
51248;SDS011;39642;47.556;18.728;2023-04-24T02:53:43;9.60;;;3.97;;
51248;SDS011;39642;47.556;18.728;2023-04-24T02:56:09;9.60;;;3.58;;
51248;SDS011;39642;47.556;18.728;2023-04-24T02:58:37;9.80;;;3.97;;
51248;SDS011;39642;47.556;18.728;2023-04-24T03:01:03;9.57;;;3.90;;
51248;SDS011;39642;47.556;18.728;2023-04-24T03:03:30;9.00;;;3.80;;
51248;SDS011;39642;47.556;18.728;2023-04-24T03:05:56;9.50;;;3.83;;
51248;SDS011;39642;47.556;18.728;2023-04-24T03:08:22;9.98;;;4.22;;
51248;SDS011;39642;47.556;18.728;2023-04-24T03:10:48;9.40;;;3.92;;
51248;SDS011;39642;47.556;18.728;2023-04-24T03:13:15;9.98;;;4.00;;
51248;SDS011;39642;47.556;18.728;2023-04-24T03:15:41;9.82;;;4.18;;
51248;SDS011;39642;47.556;18.728;2023-04-24T03:18:07;9.45;;;3.95;;
51248;SDS011;39642;47.556;18.728;2023-04-24T03:20:33;9.65;;;4.00;;
51248;SDS011;39642;47.556;18.728;2023-04-24T03:22:59;9.57;;;4.00;;
51248;SDS011;39642;47.556;18.728;2023-04-24T03:25:25;9.68;;;4.10;;
51248;SDS011;39642;47.556;18.728;2023-04-24T03:27:51;9.38;;;4.00;;
51248;SDS011;39642;47.556;18.728;2023-04-24T03:30:17;9.30;;;4.10;;
51248;SDS011;39642;47.556;18.728;2023-04-24T03:32:43;9.90;;;4.15;;
51248;SDS011;39642;47.556;18.728;2023-04-24T03:35:08;9.25;;;3.83;;
51248;SDS011;39642;47.556;18.728;2023-04-24T03:37:34;9.13;;;3.83;;
51248;SDS011;39642;47.556;18.728;2023-04-24T03:40:01;10.27;;;3.97;;
51248;SDS011;39642;47.556;18.728;2023-04-24T03:42:27;10.45;;;3.87;;
51248;SDS011;39642;47.556;18.728;2023-04-24T03:44:53;9.55;;;3.95;;
51248;SDS011;39642;47.556;18.728;2023-04-24T03:47:19;9.43;;;4.00;;
51248;SDS011;39642;47.556;18.728;2023-04-24T03:49:45;9.40;;;3.80;;
51248;SDS011;39642;47.556;18.728;2023-04-24T03:52:11;9.48;;;3.78;;
51248;SDS011;39642;47.556;18.728;2023-04-24T03:54:36;9.18;;;3.75;;
51248;SDS011;39642;47.556;18.728;2023-04-24T03:57:02;9.27;;;3.95;;
51248;SDS011;39642;47.556;18.728;2023-04-24T03:59:30;9.50;;;3.90;;
51248;SDS011;39642;47.556;18.728;2023-04-24T04:01:56;9.75;;;3.87;;
51248;SDS011;39642;47.556;18.728;2023-04-24T04:04:22;9.07;;;3.70;;
51248;SDS011;39642;47.556;18.728;2023-04-24T04:06:48;9.73;;;3.90;;
51248;SDS011;39642;47.556;18.728;2023-04-24T04:09:14;9.45;;;3.83;;
51248;SDS011;39642;47.556;18.728;2023-04-24T04:11:40;9.55;;;4.00;;
51248;SDS011;39642;47.556;18.728;2023-04-24T04:14:06;10.48;;;4.00;;
51248;SDS011;39642;47.556;18.728;2023-04-24T04:16:32;11.20;;;4.10;;
51248;SDS011;39642;47.556;18.728;2023-04-24T04:18:58;9.50;;;4.07;;
51248;SDS011;39642;47.556;18.728;2023-04-24T04:21:24;9.55;;;3.87;;
51248;SDS011;39642;47.556;18.728;2023-04-24T04:23:52;9.18;;;3.92;;
51248;SDS011;39642;47.556;18.728;2023-04-24T04:26:17;9.80;;;4.00;;
51248;SDS011;39642;47.556;18.728;2023-04-24T04:28:44;8.88;;;3.67;;
51248;SDS011;39642;47.556;18.728;2023-04-24T04:31:10;10.13;;;3.90;;
51248;SDS011;39642;47.556;18.728;2023-04-24T04:33:36;9.48;;;3.90;;
51248;SDS011;39642;47.556;18.728;2023-04-24T04:36:03;9.75;;;4.03;;
51248;SDS011;39642;47.556;18.728;2023-04-24T04:38:29;9.82;;;3.90;;
51248;SDS011;39642;47.556;18.728;2023-04-24T04:40:55;10.60;;;4.30;;
51248;SDS011;39642;47.556;18.728;2023-04-24T04:43:24;10.15;;;4.10;;
51248;SDS011;39642;47.556;18.728;2023-04-24T04:45:51;10.63;;;3.92;;
51248;SDS011;39642;47.556;18.728;2023-04-24T04:48:18;9.13;;;3.70;;
51248;SDS011;39642;47.556;18.728;2023-04-24T04:50:44;10.98;;;3.65;;
51248;SDS011;39642;47.556;18.728;2023-04-24T04:53:10;10.60;;;3.72;;
51248;SDS011;39642;47.556;18.728;2023-04-24T04:55:36;14.98;;;4.93;;
51248;SDS011;39642;47.556;18.728;2023-04-24T04:58:03;11.15;;;4.25;;
51248;SDS011;39642;47.556;18.728;2023-04-24T05:00:29;13.82;;;4.53;;
51248;SDS011;39642;47.556;18.728;2023-04-24T05:02:59;13.30;;;4.95;;
51248;SDS011;39642;47.556;18.728;2023-04-24T05:05:25;14.25;;;5.37;;
51248;SDS011;39642;47.556;18.728;2023-04-24T05:07:51;16.60;;;6.37;;
51248;SDS011;39642;47.556;18.728;2023-04-24T05:10:21;15.15;;;5.70;;
51248;SDS011;39642;47.556;18.728;2023-04-24T05:12:47;12.65;;;4.97;;
51248;SDS011;39642;47.556;18.728;2023-04-24T05:15:13;12.05;;;5.05;;
51248;SDS011;39642;47.556;18.728;2023-04-24T05:17:39;13.20;;;4.75;;
51248;SDS011;39642;47.556;18.728;2023-04-24T05:20:06;16.52;;;6.93;;
51248;SDS011;39642;47.556;18.728;2023-04-24T05:22:32;22.42;;;8.27;;
51248;SDS011;39642;47.556;18.728;2023-04-24T05:24:58;31.05;;;10.75;;
51248;SDS011;39642;47.556;18.728;2023-04-24T05:27:24;27.42;;;10.38;;
51248;SDS011;39642;47.556;18.728;2023-04-24T05:29:50;23.23;;;7.30;;
51248;SDS011;39642;47.556;18.728;2023-04-24T05:32:16;19.17;;;6.03;;
51248;SDS011;39642;47.556;18.728;2023-04-24T05:34:42;19.90;;;7.78;;
51248;SDS011;39642;47.556;18.728;2023-04-24T05:37:08;21.15;;;7.20;;
51248;SDS011;39642;47.556;18.728;2023-04-24T05:39:35;14.65;;;6.65;;
51248;SDS011;39642;47.556;18.728;2023-04-24T05:42:02;18.95;;;7.28;;
51248;SDS011;39642;47.556;18.728;2023-04-24T05:44:30;21.08;;;7.65;;
51248;SDS011;39642;47.556;18.728;2023-04-24T05:46:56;30.37;;;8.20;;
51248;SDS011;39642;47.556;18.728;2023-04-24T05:49:22;29.37;;;7.68;;
51248;SDS011;39642;47.556;18.728;2023-04-24T05:51:48;22.60;;;7.70;;
51248;SDS011;39642;47.556;18.728;2023-04-24T05:54:14;25.25;;;7.68;;
51248;SDS011;39642;47.556;18.728;2023-04-24T05:56:40;25.45;;;7.62;;
51248;SDS011;39642;47.556;18.728;2023-04-24T05:59:06;19.87;;;6.90;;
51248;SDS011;39642;47.556;18.728;2023-04-24T06:01:33;30.55;;;7.60;;
51248;SDS011;39642;47.556;18.728;2023-04-24T06:03:59;24.45;;;7.03;;
51248;SDS011;39642;47.556;18.728;2023-04-24T06:06:32;19.33;;;7.37;;
51248;SDS011;39642;47.556;18.728;2023-04-24T06:20:20;21.25;;;6.60;;
51248;SDS011;39642;47.556;18.728;2023-04-24T06:22:46;17.40;;;6.10;;
51248;SDS011;39642;47.556;18.728;2023-04-24T06:25:12;22.67;;;6.50;;
51248;SDS011;39642;47.556;18.728;2023-04-24T06:27:38;25.75;;;6.82;;
51248;SDS011;39642;47.556;18.728;2023-04-24T06:30:04;19.75;;;6.43;;
51248;SDS011;39642;47.556;18.728;2023-04-24T06:32:31;23.62;;;6.43;;
51248;SDS011;39642;47.556;18.728;2023-04-24T06:34:56;22.27;;;6.75;;
51248;SDS011;39642;47.556;18.728;2023-04-24T06:37:22;25.48;;;6.12;;
51248;SDS011;39642;47.556;18.728;2023-04-24T06:39:49;19.58;;;5.82;;
51248;SDS011;39642;47.556;18.728;2023-04-24T06:42:15;22.70;;;6.12;;
51248;SDS011;39642;47.556;18.728;2023-04-24T06:44:41;23.05;;;6.50;;
51248;SDS011;39642;47.556;18.728;2023-04-24T06:47:07;22.48;;;7.28;;
51248;SDS011;39642;47.556;18.728;2023-04-24T06:49:34;23.35;;;6.75;;
51248;SDS011;39642;47.556;18.728;2023-04-24T06:52:03;33.03;;;8.50;;
51248;SDS011;39642;47.556;18.728;2023-04-24T06:54:30;26.27;;;6.95;;
51248;SDS011;39642;47.556;18.728;2023-04-24T06:56:56;25.70;;;9.00;;
51248;SDS011;39642;47.556;18.728;2023-04-24T06:59:26;28.62;;;9.90;;
51248;SDS011;39642;47.556;18.728;2023-04-24T07:01:53;22.77;;;7.20;;
51248;SDS011;39642;47.556;18.728;2023-04-24T07:04:20;27.33;;;7.80;;
51248;SDS011;39642;47.556;18.728;2023-04-24T07:06:46;35.50;;;9.90;;
51248;SDS011;39642;47.556;18.728;2023-04-24T07:09:13;27.17;;;8.38;;
51248;SDS011;39642;47.556;18.728;2023-04-24T07:11:44;26.67;;;8.25;;
51248;SDS011;39642;47.556;18.728;2023-04-24T07:14:10;19.90;;;7.07;;
51248;SDS011;39642;47.556;18.728;2023-04-24T07:16:37;21.80;;;7.07;;
51248;SDS011;39642;47.556;18.728;2023-04-24T07:19:03;20.37;;;6.57;;
51248;SDS011;39642;47.556;18.728;2023-04-24T07:21:29;28.67;;;7.75;;
51248;SDS011;39642;47.556;18.728;2023-04-24T07:23:57;24.73;;;7.45;;
51248;SDS011;39642;47.556;18.728;2023-04-24T07:26:23;40.78;;;9.02;;
51248;SDS011;39642;47.556;18.728;2023-04-24T07:28:50;32.10;;;8.20;;
51248;SDS011;39642;47.556;18.728;2023-04-24T07:31:20;25.52;;;7.15;;
51248;SDS011;39642;47.556;18.728;2023-04-24T07:33:46;27.05;;;7.75;;
51248;SDS011;39642;47.556;18.728;2023-04-24T07:36:12;26.12;;;7.25;;
51248;SDS011;39642;47.556;18.728;2023-04-24T07:38:42;21.42;;;6.50;;
51248;SDS011;39642;47.556;18.728;2023-04-24T07:41:08;23.35;;;7.05;;
51248;SDS011;39642;47.556;18.728;2023-04-24T07:43:34;24.30;;;6.72;;
51248;SDS011;39642;47.556;18.728;2023-04-24T07:46:00;16.55;;;6.00;;
51248;SDS011;39642;47.556;18.728;2023-04-24T07:48:26;20.10;;;6.10;;
51248;SDS011;39642;47.556;18.728;2023-04-24T07:50:53;18.65;;;6.30;;
51248;SDS011;39642;47.556;18.728;2023-04-24T07:53:19;22.37;;;6.90;;
51248;SDS011;39642;47.556;18.728;2023-04-24T07:55:45;27.42;;;7.50;;
51248;SDS011;39642;47.556;18.728;2023-04-24T07:58:11;38.83;;;7.30;;
51248;SDS011;39642;47.556;18.728;2023-04-24T08:00:37;30.33;;;7.85;;
51248;SDS011;39642;47.556;18.728;2023-04-24T08:03:03;24.12;;;6.62;;
51248;SDS011;39642;47.556;18.728;2023-04-24T08:05:29;26.87;;;6.93;;
51248;SDS011;39642;47.556;18.728;2023-04-24T08:07:55;25.27;;;6.95;;
51248;SDS011;39642;47.556;18.728;2023-04-24T08:10:22;19.40;;;6.00;;
51248;SDS011;39642;47.556;18.728;2023-04-24T08:12:48;30.20;;;6.32;;
51248;SDS011;39642;47.556;18.728;2023-04-24T08:15:15;25.80;;;6.35;;
51248;SDS011;39642;47.556;18.728;2023-04-24T08:17:40;25.48;;;7.00;;
51248;SDS011;39642;47.556;18.728;2023-04-24T08:20:07;33.10;;;7.10;;
51248;SDS011;39642;47.556;18.728;2023-04-24T08:22:41;24.92;;;7.32;;
51248;SDS011;39642;47.556;18.728;2023-04-24T08:25:09;23.40;;;6.80;;
51248;SDS011;39642;47.556;18.728;2023-04-24T08:27:36;22.25;;;6.12;;
51248;SDS011;39642;47.556;18.728;2023-04-24T08:30:03;17.25;;;6.45;;
51248;SDS011;39642;47.556;18.728;2023-04-24T08:32:29;23.92;;;5.80;;
51248;SDS011;39642;47.556;18.728;2023-04-24T08:34:55;23.83;;;6.70;;
51248;SDS011;39642;47.556;18.728;2023-04-24T08:37:22;24.08;;;6.50;;
51248;SDS011;39642;47.556;18.728;2023-04-24T08:39:49;18.48;;;6.22;;
51248;SDS011;39642;47.556;18.728;2023-04-24T08:42:16;26.65;;;6.30;;
51248;SDS011;39642;47.556;18.728;2023-04-24T08:44:44;27.55;;;7.35;;
51248;SDS011;39642;47.556;18.728;2023-04-24T08:47:10;35.35;;;7.82;;
51248;SDS011;39642;47.556;18.728;2023-04-24T08:49:37;37.30;;;7.62;;
51248;SDS011;39642;47.556;18.728;2023-04-24T08:52:04;34.72;;;7.62;;
51248;SDS011;39642;47.556;18.728;2023-04-24T08:54:31;31.77;;;6.12;;
51248;SDS011;39642;47.556;18.728;2023-04-24T08:56:58;28.08;;;6.87;;
51248;SDS011;39642;47.556;18.728;2023-04-24T08:59:29;36.35;;;8.13;;
51248;SDS011;39642;47.556;18.728;2023-04-24T09:01:56;50.28;;;7.97;;
51248;SDS011;39642;47.556;18.728;2023-04-24T09:04:23;30.37;;;7.25;;
51248;SDS011;39642;47.556;18.728;2023-04-24T09:06:59;47.53;;;7.25;;
51248;SDS011;39642;47.556;18.728;2023-04-24T09:09:25;35.47;;;7.40;;
51248;SDS011;39642;47.556;18.728;2023-04-24T09:11:51;26.42;;;6.90;;
51248;SDS011;39642;47.556;18.728;2023-04-24T09:14:21;35.38;;;7.07;;
51248;SDS011;39642;47.556;18.728;2023-04-24T09:16:48;26.65;;;6.95;;
51248;SDS011;39642;47.556;18.728;2023-04-24T09:19:15;24.08;;;6.30;;
51248;SDS011;39642;47.556;18.728;2023-04-24T09:21:41;26.70;;;6.43;;
51248;SDS011;39642;47.556;18.728;2023-04-24T09:24:15;25.00;;;6.68;;
51248;SDS011;39642;47.556;18.728;2023-04-24T09:26:43;20.23;;;6.05;;
51248;SDS011;39642;47.556;18.728;2023-04-24T09:29:14;16.17;;;5.90;;
51248;SDS011;39642;47.556;18.728;2023-04-24T09:31:44;19.37;;;6.22;;
51248;SDS011;39642;47.556;18.728;2023-04-24T09:34:11;23.12;;;6.87;;
51248;SDS011;39642;47.556;18.728;2023-04-24T09:36:38;23.33;;;6.05;;
51248;SDS011;39642;47.556;18.728;2023-04-24T09:39:06;18.20;;;5.43;;
51248;SDS011;39642;47.556;18.728;2023-04-24T09:41:43;26.70;;;6.72;;
51248;SDS011;39642;47.556;18.728;2023-04-24T09:44:20;27.65;;;6.53;;
51248;SDS011;39642;47.556;18.728;2023-04-24T09:46:57;36.67;;;6.80;;
51248;SDS011;39642;47.556;18.728;2023-04-24T09:49:25;39.28;;;7.68;;
51248;SDS011;39642;47.556;18.728;2023-04-24T09:52:02;46.37;;;8.35;;
51248;SDS011;39642;47.556;18.728;2023-04-24T09:54:32;39.10;;;7.60;;
51248;SDS011;39642;47.556;18.728;2023-04-24T09:56:58;32.45;;;7.20;;
51248;SDS011;39642;47.556;18.728;2023-04-24T09:59:25;27.02;;;6.57;;
51248;SDS011;39642;47.556;18.728;2023-04-24T10:01:51;31.62;;;7.60;;
51248;SDS011;39642;47.556;18.728;2023-04-24T10:04:19;30.70;;;7.50;;
51248;SDS011;39642;47.556;18.728;2023-04-24T10:06:56;36.85;;;7.22;;
51248;SDS011;39642;47.556;18.728;2023-04-24T10:09:32;39.35;;;8.57;;
51248;SDS011;39642;47.556;18.728;2023-04-24T10:11:59;35.40;;;8.77;;
51248;SDS011;39642;47.556;18.728;2023-04-24T10:14:27;33.05;;;7.62;;
51248;SDS011;39642;47.556;18.728;2023-04-24T10:16:55;34.47;;;7.70;;
51248;SDS011;39642;47.556;18.728;2023-04-24T10:19:23;25.12;;;7.07;;
51248;SDS011;39642;47.556;18.728;2023-04-24T10:21:51;25.10;;;7.05;;
51248;SDS011;39642;47.556;18.728;2023-04-24T10:24:18;27.23;;;7.20;;
51248;SDS011;39642;47.556;18.728;2023-04-24T10:26:47;20.75;;;7.05;;
51248;SDS011;39642;47.556;18.728;2023-04-24T10:29:14;25.37;;;6.70;;
51248;SDS011;39642;47.556;18.728;2023-04-24T10:31:42;21.75;;;6.40;;
51248;SDS011;39642;47.556;18.728;2023-04-24T10:34:11;21.87;;;6.82;;
51248;SDS011;39642;47.556;18.728;2023-04-24T10:36:41;31.58;;;7.82;;
51248;SDS011;39642;47.556;18.728;2023-04-24T10:39:11;20.47;;;5.97;;
51248;SDS011;39642;47.556;18.728;2023-04-24T10:41:40;27.15;;;6.65;;
51248;SDS011;39642;47.556;18.728;2023-04-24T10:46:32;30.48;;;8.13;;
51248;SDS011;39642;47.556;18.728;2023-04-24T10:48:58;31.62;;;8.38;;
51248;SDS011;39642;47.556;18.728;2023-04-24T10:51:24;27.83;;;7.82;;
51248;SDS011;39642;47.556;18.728;2023-04-24T10:54:22;19.92;;;7.75;;
51248;SDS011;39642;47.556;18.728;2023-04-24T10:56:49;18.33;;;7.20;;
51248;SDS011;39642;47.556;18.728;2023-04-24T10:59:28;26.95;;;7.25;;
51248;SDS011;39642;47.556;18.728;2023-04-24T11:02:00;28.60;;;7.03;;
51248;SDS011;39642;47.556;18.728;2023-04-24T11:04:29;19.10;;;5.62;;
51248;SDS011;39642;47.556;18.728;2023-04-24T11:06:57;20.20;;;5.72;;
51248;SDS011;39642;47.556;18.728;2023-04-24T11:09:25;18.45;;;5.62;;
51248;SDS011;39642;47.556;18.728;2023-04-24T11:11:53;13.73;;;4.80;;
51248;SDS011;39642;47.556;18.728;2023-04-24T11:17:36;17.08;;;4.70;;
51248;SDS011;39642;47.556;18.728;2023-04-24T11:20:09;14.65;;;4.28;;
51248;SDS011;39642;47.556;18.728;2023-04-24T11:22:37;27.75;;;5.80;;
51248;SDS011;39642;47.556;18.728;2023-04-24T11:25:08;16.02;;;4.47;;
51248;SDS011;39642;47.556;18.728;2023-04-24T11:27:41;25.58;;;5.40;;
51248;SDS011;39642;47.556;18.728;2023-04-24T11:30:09;22.60;;;6.10;;
51248;SDS011;39642;47.556;18.728;2023-04-24T11:32:36;28.25;;;5.70;;
51248;SDS011;39642;47.556;18.728;2023-04-24T11:35:05;16.70;;;5.00;;
51248;SDS011;39642;47.556;18.728;2023-04-24T11:37:43;18.27;;;5.00;;
51248;SDS011;39642;47.556;18.728;2023-04-24T11:40:17;23.23;;;4.70;;
51248;SDS011;39642;47.556;18.728;2023-04-24T11:42:49;22.60;;;5.45;;
51248;SDS011;39642;47.556;18.728;2023-04-24T11:45:17;17.52;;;4.70;;
51248;SDS011;39642;47.556;18.728;2023-04-24T11:47:45;19.37;;;4.60;;
51248;SDS011;39642;47.556;18.728;2023-04-24T11:50:11;32.53;;;5.30;;
51248;SDS011;39642;47.556;18.728;2023-04-24T11:52:45;24.60;;;5.78;;
51248;SDS011;39642;47.556;18.728;2023-04-24T11:57:45;30.35;;;5.90;;
51248;SDS011;39642;47.556;18.728;2023-04-24T12:00:16;25.10;;;5.62;;
51248;SDS011;39642;47.556;18.728;2023-04-24T12:02:44;24.33;;;4.90;;
51248;SDS011;39642;47.556;18.728;2023-04-24T12:05:20;22.55;;;5.32;;
51248;SDS011;39642;47.556;18.728;2023-04-24T12:07:47;23.25;;;4.93;;
51248;SDS011;39642;47.556;18.728;2023-04-24T12:10:13;19.20;;;5.32;;
51248;SDS011;39642;47.556;18.728;2023-04-24T12:12:40;26.20;;;5.35;;
51248;SDS011;39642;47.556;18.728;2023-04-24T12:15:06;21.12;;;5.50;;
51248;SDS011;39642;47.556;18.728;2023-04-24T12:17:33;19.87;;;4.57;;
51248;SDS011;39642;47.556;18.728;2023-04-24T12:20:01;21.02;;;4.80;;
51248;SDS011;39642;47.556;18.728;2023-04-24T12:25:15;18.67;;;5.03;;
51248;SDS011;39642;47.556;18.728;2023-04-24T12:27:42;20.70;;;5.00;;
51248;SDS011;39642;47.556;18.728;2023-04-24T12:30:18;63.97;;;8.05;;
51248;SDS011;39642;47.556;18.728;2023-04-24T12:32:45;40.08;;;6.25;;
51248;SDS011;39642;47.556;18.728;2023-04-24T12:35:12;26.00;;;5.50;;
51248;SDS011;39642;47.556;18.728;2023-04-24T12:37:44;30.33;;;6.12;;
51248;SDS011;39642;47.556;18.728;2023-04-24T12:40:10;27.95;;;6.10;;
51248;SDS011;39642;47.556;18.728;2023-04-24T12:42:55;33.75;;;6.18;;
51248;SDS011;39642;47.556;18.728;2023-04-24T12:45:21;35.08;;;5.85;;
51248;SDS011;39642;47.556;18.728;2023-04-24T12:47:49;27.65;;;5.97;;
51248;SDS011;39642;47.556;18.728;2023-04-24T12:50:15;24.17;;;5.40;;
51248;SDS011;39642;47.556;18.728;2023-04-24T12:52:41;23.55;;;5.45;;
51248;SDS011;39642;47.556;18.728;2023-04-24T12:55:08;25.20;;;5.18;;
51248;SDS011;39642;47.556;18.728;2023-04-24T12:57:36;16.98;;;4.90;;
51248;SDS011;39642;47.556;18.728;2023-04-24T13:00:05;20.88;;;4.80;;
51248;SDS011;39642;47.556;18.728;2023-04-24T13:02:35;27.33;;;5.35;;
51248;SDS011;39642;47.556;18.728;2023-04-24T13:05:04;22.10;;;5.07;;
51248;SDS011;39642;47.556;18.728;2023-04-24T13:07:30;25.50;;;4.85;;
51248;SDS011;39642;47.556;18.728;2023-04-24T13:09:56;18.62;;;4.43;;
51248;SDS011;39642;47.556;18.728;2023-04-24T13:12:25;24.23;;;4.60;;
51248;SDS011;39642;47.556;18.728;2023-04-24T13:14:52;15.32;;;4.57;;
51248;SDS011;39642;47.556;18.728;2023-04-24T13:17:18;22.73;;;5.18;;
51248;SDS011;39642;47.556;18.728;2023-04-24T13:19:44;14.50;;;4.55;;
51248;SDS011;39642;47.556;18.728;2023-04-24T13:22:11;15.23;;;4.57;;
51248;SDS011;39642;47.556;18.728;2023-04-24T13:24:38;20.85;;;4.93;;
51248;SDS011;39642;47.556;18.728;2023-04-24T13:27:06;23.77;;;5.30;;
51248;SDS011;39642;47.556;18.728;2023-04-24T13:29:32;19.52;;;4.70;;
51248;SDS011;39642;47.556;18.728;2023-04-24T13:31:58;22.27;;;4.72;;
51248;SDS011;39642;47.556;18.728;2023-04-24T13:34:25;23.55;;;5.32;;
51248;SDS011;39642;47.556;18.728;2023-04-24T13:36:52;22.35;;;5.37;;
51248;SDS011;39642;47.556;18.728;2023-04-24T13:39:19;37.42;;;5.53;;
51248;SDS011;39642;47.556;18.728;2023-04-24T13:41:45;57.60;;;8.60;;
51248;SDS011;39642;47.556;18.728;2023-04-24T13:44:14;31.25;;;5.35;;
51248;SDS011;39642;47.556;18.728;2023-04-24T13:46:41;29.27;;;5.18;;
51248;SDS011;39642;47.556;18.728;2023-04-24T13:49:07;20.65;;;5.45;;
51248;SDS011;39642;47.556;18.728;2023-04-24T13:51:33;26.00;;;6.03;;
51248;SDS011;39642;47.556;18.728;2023-04-24T13:53:59;22.37;;;5.20;;
51248;SDS011;39642;47.556;18.728;2023-04-24T13:56:25;17.00;;;4.93;;
51248;SDS011;39642;47.556;18.728;2023-04-24T13:58:51;23.30;;;4.85;;
51248;SDS011;39642;47.556;18.728;2023-04-24T14:01:17;22.67;;;5.28;;
51248;SDS011;39642;47.556;18.728;2023-04-24T14:03:43;21.52;;;4.82;;
51248;SDS011;39642;47.556;18.728;2023-04-24T14:06:09;17.00;;;4.93;;
51248;SDS011;39642;47.556;18.728;2023-04-24T14:08:35;21.87;;;4.72;;
51248;SDS011;39642;47.556;18.728;2023-04-24T14:11:01;15.10;;;4.90;;
51248;SDS011;39642;47.556;18.728;2023-04-24T14:13:26;16.30;;;4.43;;
51248;SDS011;39642;47.556;18.728;2023-04-24T14:15:53;14.73;;;4.12;;
51248;SDS011;39642;47.556;18.728;2023-04-24T14:18:19;14.30;;;4.15;;
51248;SDS011;39642;47.556;18.728;2023-04-24T14:20:45;17.87;;;4.40;;
51248;SDS011;39642;47.556;18.728;2023-04-24T14:23:11;13.10;;;4.15;;
51248;SDS011;39642;47.556;18.728;2023-04-24T14:25:37;16.80;;;4.18;;
51248;SDS011;39642;47.556;18.728;2023-04-24T14:28:03;14.60;;;4.35;;
51248;SDS011;39642;47.556;18.728;2023-04-24T14:30:29;14.82;;;3.87;;
51248;SDS011;39642;47.556;18.728;2023-04-24T14:32:55;15.40;;;4.25;;
51248;SDS011;39642;47.556;18.728;2023-04-24T14:35:21;18.30;;;4.87;;
51248;SDS011;39642;47.556;18.728;2023-04-24T14:37:47;27.75;;;4.72;;
51248;SDS011;39642;47.556;18.728;2023-04-24T14:40:14;27.90;;;4.37;;
51248;SDS011;39642;47.556;18.728;2023-04-24T14:42:40;19.65;;;4.50;;
51248;SDS011;39642;47.556;18.728;2023-04-24T14:45:06;15.57;;;4.00;;
51248;SDS011;39642;47.556;18.728;2023-04-24T14:47:33;12.18;;;3.80;;